Wyandanch, New York
Current Conditions -  °F | °C
As of 12:53 PM on Tuesday 21 Oct 2014 (Local Time) from KFRG Reporting Station
Broken Clouds Broken Clouds  
Wind Chill: 67°   Ceiling: 10000
Heat Index: 67°   Visibility: 10mi
Dew Point: 50°   Wind: 10mph
Humidity: 54%   Direction: 130°SE
Pressure: 29.87"   Gusts: NA
Location:  40.76°N, 73.36°W
Report Text: KFRG 211653Z 13009KT 10SM FEW070 BKN100 19/10 A2987 RMK AO2 SLP114 T01940100
Loading
Personal Weather Stations






























Interactive Weather Map
Tropical Storm Tracking
New forecast layout! Learn more

10-Day Weather Forecast

Advertisements
Track Severe Weather on mobile